Time;durP1;ratioP1;P1;durP2;ratioP2;P2;SDS_P1;SDS_P2;PMS_P1;PMS_P2;Temp;Humidity;BMP_temperature;BMP_pressure;BME280_temperature;BME280_humidity;BME280_pressure;Samples;Min_cycle;Max_cycle;Signal;HPM_P1;HPM_P2
2021/07/18 00:01:42;;;;;;;0.77;0.77;;;18.20;79.40;;;;;;4918565;29;20048;-80
2021/07/18 00:04:09;;;;;;;1.20;0.70;;;18.20;79.60;;;;;;4902909;29;20077;-79
2021/07/18 00:06:35;;;;;;;0.60;0.60;;;18.10;79.60;;;;;;4901524;29;20036;-80
2021/07/18 00:09:02;;;;;;;0.70;0.70;;;18.10;79.70;;;;;;4920093;29;20443;-78
2021/07/18 00:11:28;;;;;;;1.45;0.60;;;18.10;79.80;;;;;;4918790;29;20551;-78
2021/07/18 00:13:54;;;;;;;0.32;0.32;;;18.10;79.90;;;;;;4920890;29;20040;-78
2021/07/18 00:16:21;;;;;;;0.60;0.60;;;18.10;80.00;;;;;;4902072;29;20032;-78
2021/07/18 00:18:47;;;;;;;0.52;0.52;;;18.10;80.10;;;;;;4918222;29;20040;-79
2021/07/18 00:21:13;;;;;;;0.47;0.45;;;18.00;80.00;;;;;;4920335;29;20036;-79
2021/07/18 00:23:40;;;;;;;0.88;0.40;;;18.00;80.10;;;;;;4920018;29;20107;-78
2021/07/18 00:26:06;;;;;;;0.60;0.60;;;18.10;80.30;;;;;;4920100;29;20599;-78
2021/07/18 00:28:33;;;;;;;0.52;0.52;;;18.00;80.20;;;;;;4900943;29;20075;-78
2021/07/18 00:30:59;;;;;;;0.50;0.50;;;18.00;80.30;;;;;;4920293;29;20039;-78
2021/07/18 00:33:25;;;;;;;0.60;0.50;;;18.00;80.30;;;;;;4902827;29;20055;-78
2021/07/18 00:35:51;;;;;;;0.82;0.40;;;18.10;80.50;;;;;;4919392;29;20487;-79
2021/07/18 00:38:18;;;;;;;1.00;0.65;;;17.90;80.40;;;;;;4902308;29;20075;-79
2021/07/18 00:40:44;;;;;;;0.63;0.60;;;17.90;80.50;;;;;;4919143;29;20491;-79
2021/07/18 00:43:10;;;;;;;1.20;0.60;;;17.90;80.60;;;;;;4901428;29;20145;-78
2021/07/18 00:45:36;;;;;;;0.40;0.40;;;17.90;80.60;;;;;;4919861;29;20577;-78
2021/07/18 00:48:02;;;;;;;0.55;0.55;;;17.90;80.70;;;;;;4917089;29;20040;-78
2021/07/18 00:50:29;;;;;;;0.57;0.50;;;17.90;80.70;;;;;;4900779;29;20044;-78
2021/07/18 00:52:55;;;;;;;0.68;0.47;;;17.50;80.60;;;;;;4901856;29;20032;-78
2021/07/18 00:55:21;;;;;;;0.55;0.52;;;17.90;80.90;;;;;;4917968;29;20074;-78
2021/07/18 00:57:48;;;;;;;1.33;0.50;;;17.80;80.90;;;;;;4917787;29;20169;-78
2021/07/18 01:00:17;;;;;;;1.85;0.70;;;17.80;81.00;;;;;;4916299;29;20065;-78
2021/07/18 01:02:44;;;;;;;0.70;0.70;;;17.80;81.10;;;;;;4906078;29;20040;-78
2021/07/18 01:05:13;;;;;;;1.70;0.82;;;17.80;81.20;;;;;;4916529;29;20068;-79
2021/07/18 01:07:40;;;;;;;1.13;0.77;;;17.80;81.30;;;;;;4900704;29;20499;-79
2021/07/18 01:10:08;;;;;;;0.68;0.68;;;17.70;81.30;;;;;;4902488;29;20472;-78
2021/07/18 01:12:35;;;;;;;0.65;0.65;;;17.70;81.40;;;;;;4918591;29;20036;-78
2021/07/18 01:15:02;;;;;;;0.80;0.77;;;17.60;81.30;;;;;;4902096;29;20051;-79
2021/07/18 01:17:28;;;;;;;1.20;0.85;;;17.70;81.50;;;;;;4899858;29;20040;-79
2021/07/18 01:19:55;;;;;;;2.38;0.88;;;17.70;81.60;;;;;;4902074;29;20037;-79
2021/07/18 01:22:22;;;;;;;0.55;0.50;;;17.70;81.80;;;;;;4918403;29;20115;-79
2021/07/18 01:24:49;;;;;;;1.17;0.88;;;17.70;81.80;;;;;;4903919;29;20068;-78
2021/07/18 01:27:15;;;;;;;0.85;0.70;;;17.70;82.00;;;;;;4923885;29;20040;-78
2021/07/18 01:29:42;;;;;;;0.65;0.65;;;17.70;82.00;;;;;;4923141;29;20051;-79
2021/07/18 01:32:08;;;;;;;1.00;0.70;;;17.70;82.00;;;;;;4912861;29;20044;-79
2021/07/18 01:34:34;;;;;;;1.00;0.77;;;17.70;82.00;;;;;;4927867;29;20507;-79
2021/07/18 01:37:01;;;;;;;0.90;0.77;;;17.80;82.10;;;;;;4905063;29;20091;-80
2021/07/18 01:39:26;;;;;;;1.13;0.82;;;17.70;82.00;;;;;;4916057;29;20125;-79
2021/07/18 01:41:57;;;;;;;1.38;0.82;;;17.70;82.10;;;;;;4885777;29;20503;-79
2021/07/18 01:44:23;;;;;;;1.25;0.88;;;17.70;82.20;;;;;;4901062;29;20087;-79
2021/07/18 01:46:50;;;;;;;1.02;0.90;;;17.70;82.20;;;;;;4922749;29;20088;-79
2021/07/18 01:49:16;;;;;;;0.88;0.60;;;17.70;83.00;;;;;;4921259;29;20480;-79
2021/07/18 01:51:42;;;;;;;0.82;0.63;;;17.70;82.40;;;;;;4912557;29;20029;-79
2021/07/18 01:54:11;;;;;;;0.55;0.50;;;17.70;82.40;;;;;;4932790;29;20037;-78
2021/07/18 01:56:38;;;;;;;2.08;0.90;;;17.70;82.40;;;;;;4913593;29;20048;-80
2021/07/18 01:59:05;;;;;;;2.15;1.00;;;17.80;82.40;;;;;;4914320;29;20050;-80
2021/07/18 02:01:38;;;;;;;1.55;1.10;;;17.70;82.50;;;;;;4910453;29;20048;-80
2021/07/18 02:04:04;;;;;;;1.27;0.70;;;17.70;82.60;;;;;;4930234;29;20052;-80
2021/07/18 02:06:32;;;;;;;0.90;0.70;;;17.70;82.70;;;;;;4915817;29;20051;-81
2021/07/18 02:09:00;;;;;;;0.55;0.50;;;17.70;82.90;;;;;;4916459;29;20174;-79
2021/07/18 02:11:27;;;;;;;3.08;1.20;;;17.80;82.90;;;;;;4923134;29;20044;-78
2021/07/18 02:13:55;;;;;;;0.90;0.63;;;17.70;82.90;;;;;;4918476;29;20064;-81
2021/07/18 02:16:21;;;;;;;1.17;0.88;;;17.80;83.00;;;;;;4933204;29;20045;-79
2021/07/18 02:18:49;;;;;;;0.80;0.70;;;17.70;82.90;;;;;;4910754;29;20052;-79
2021/07/18 02:21:16;;;;;;;0.80;0.80;;;17.60;82.90;;;;;;4925987;29;20036;-79
2021/07/18 02:23:43;;;;;;;0.85;0.73;;;17.70;83.10;;;;;;4928087;29;20044;-79
2021/07/18 02:26:09;;;;;;;0.60;0.60;;;17.80;83.20;;;;;;4927429;29;20114;-79
2021/07/18 02:28:35;;;;;;;1.40;1.00;;;17.60;83.10;;;;;;4915098;29;20453;-79
2021/07/18 02:31:05;;;;;;;1.00;0.88;;;17.80;83.40;;;;;;4917225;29;20044;-79
2021/07/18 02:33:33;;;;;;;1.15;0.77;;;17.50;83.20;;;;;;4932603;29;20196;-79
2021/07/18 02:36:00;;;;;;;0.85;0.70;;;17.80;83.40;;;;;;4910732;29;20036;-78
2021/07/18 02:38:27;;;;;;;0.68;0.60;;;17.80;83.40;;;;;;4914400;29;20115;-79
2021/07/18 02:40:52;;;;;;;0.68;0.68;;;17.40;83.20;;;;;;4924315;29;20037;-79
2021/07/18 02:43:19;;;;;;;0.60;0.55;;;17.80;83.50;;;;;;4925975;29;20087;-78
2021/07/18 02:45:45;;;;;;;0.60;0.60;;;17.80;83.50;;;;;;4906582;29;20394;-80
2021/07/18 02:48:12;;;;;;;2.45;0.80;;;17.80;83.50;;;;;;4924082;29;20474;-80
2021/07/18 02:50:38;;;;;;;0.80;0.70;;;17.80;83.50;;;;;;4908788;29;20087;-80
2021/07/18 02:53:04;;;;;;;0.80;0.65;;;17.80;83.50;;;;;;4907436;29;20040;-80
2021/07/18 02:55:31;;;;;;;0.82;0.73;;;17.80;83.60;;;;;;4921593;29;20044;-80
2021/07/18 02:57:57;;;;;;;1.15;0.80;;;17.80;83.70;;;;;;4906766;29;20033;-79
2021/07/18 03:00:25;;;;;;;0.88;0.73;;;17.70;83.70;;;;;;4906313;29;20048;-80
2021/07/18 03:02:51;;;;;;;1.50;0.93;;;17.80;83.80;;;;;;4907877;29;20475;-79
2021/07/18 03:05:17;;;;;;;0.57;0.50;;;17.90;83.90;;;;;;4891699;29;20075;-79
2021/07/18 03:07:45;;;;;;;0.70;0.60;;;17.90;84.00;;;;;;4921311;29;20104;-80
2021/07/18 03:10:12;;;;;;;0.55;0.50;;;17.80;83.90;;;;;;4923394;29;20040;-80
2021/07/18 03:12:38;;;;;;;1.10;0.90;;;17.80;84.00;;;;;;4905618;29;20383;-81
2021/07/18 03:15:09;;;;;;;0.93;0.80;;;17.70;83.90;;;;;;4906663;29;20039;-80
2021/07/18 03:17:35;;;;;;;1.15;0.80;;;17.80;84.10;;;;;;4922038;29;20461;-80
2021/07/18 03:20:02;;;;;;;0.75;0.70;;;17.70;84.10;;;;;;4925312;29;20155;-81
2021/07/18 03:22:29;;;;;;;2.00;1.02;;;17.70;84.20;;;;;;4904960;29;20045;-80
2021/07/18 03:24:56;;;;;;;1.52;1.00;;;17.70;84.30;;;;;;4920373;29;20105;-80
2021/07/18 03:27:22;;;;;;;1.90;1.17;;;17.70;84.30;;;;;;4906936;29;20100;-79
2021/07/18 03:29:48;;;;;;;1.42;0.93;;;17.70;84.40;;;;;;4924529;29;20028;-79
2021/07/18 03:32:13;;;;;;;1.40;0.80;;;17.70;84.40;;;;;;4908550;29;20431;-80
2021/07/18 03:34:40;;;;;;;2.97;1.33;;;17.70;84.30;;;;;;4922657;29;20055;-79
2021/07/18 03:37:06;;;;;;;2.65;1.25;;;17.70;84.40;;;;;;4918820;29;20392;-79
2021/07/18 03:39:33;;;;;;;1.77;1.33;;;17.70;84.40;;;;;;4923364;29;20099;-80
2021/07/18 03:42:00;;;;;;;1.33;1.02;;;17.70;84.40;;;;;;4919178;29;20433;-81
2021/07/18 03:44:27;;;;;;;0.85;0.70;;;17.70;84.30;;;;;;4907037;29;20059;-79
2021/07/18 03:46:53;;;;;;;1.50;1.20;;;17.70;84.40;;;;;;4923685;29;20064;-80
2021/07/18 03:49:20;;;;;;;1.45;0.90;;;17.70;84.50;;;;;;4924779;29;20036;-79
2021/07/18 03:51:46;;;;;;;2.65;1.00;;;17.60;84.50;;;;;;4905467;29;20033;-79
2021/07/18 03:54:13;;;;;;;0.93;0.85;;;17.70;84.60;;;;;;4920214;29;20032;-78
2021/07/18 03:56:39;;;;;;;0.65;0.60;;;17.70;84.60;;;;;;4908757;29;20500;-80
2021/07/18 03:59:05;;;;;;;0.90;0.57;;;17.70;84.60;;;;;;4922351;29;20036;-79
2021/07/18 04:01:32;;;;;;;0.57;0.50;;;17.70;84.60;;;;;;4905186;29;20072;-79
2021/07/18 04:03:58;;;;;;;0.57;0.57;;;17.70;84.60;;;;;;4922227;29;20060;-80
2021/07/18 04:06:25;;;;;;;1.55;0.95;;;17.70;84.70;;;;;;4924668;29;20040;-80
2021/07/18 04:08:51;;;;;;;0.80;0.77;;;17.70;84.70;;;;;;4921935;29;20036;-80
2021/07/18 04:11:17;;;;;;;1.48;1.00;;;17.70;84.70;;;;;;4916892;29;20047;-80
2021/07/18 04:13:43;;;;;;;1.58;0.90;;;17.70;84.70;;;;;;4918479;29;20032;-80
2021/07/18 04:16:09;;;;;;;0.50;0.50;;;17.70;84.80;;;;;;4918618;29;20068;-80
2021/07/18 04:18:35;;;;;;;0.95;0.80;;;17.60;84.80;;;;;;4901461;29;20055;-80
2021/07/18 04:21:02;;;;;;;0.75;0.63;;;17.70;84.90;;;;;;4905136;29;20039;-79
2021/07/18 04:23:29;;;;;;;0.93;0.82;;;17.70;84.90;;;;;;4900370;29;20040;-80
2021/07/18 04:25:55;;;;;;;1.30;1.00;;;17.70;84.90;;;;;;4900090;29;20047;-79
2021/07/18 04:28:22;;;;;;;0.93;0.73;;;17.70;85.00;;;;;;4916550;29;20040;-81
2021/07/18 04:30:49;;;;;;;1.02;0.70;;;17.70;85.00;;;;;;4886000;29;20059;-80
2021/07/18 04:33:15;;;;;;;0.60;0.60;;;17.70;85.00;;;;;;4899620;29;20124;-79
2021/07/18 04:35:41;;;;;;;2.28;1.17;;;17.60;85.00;;;;;;4919250;29;20055;-79
2021/07/18 04:38:07;;;;;;;1.42;0.98;;;17.70;85.10;;;;;;4902538;29;20033;-79
2021/07/18 04:40:34;;;;;;;1.08;0.60;;;17.70;85.00;;;;;;4919807;29;20050;-80
2021/07/18 04:43:02;;;;;;;0.93;0.85;;;17.70;85.10;;;;;;4914071;29;20450;-81
2021/07/18 04:45:29;;;;;;;0.50;0.50;;;17.70;85.00;;;;;;4900750;29;20419;-80
2021/07/18 04:47:57;;;;;;;1.23;0.77;;;17.50;85.10;;;;;;4917285;29;20044;-79
2021/07/18 04:50:25;;;;;;;1.05;0.75;;;17.60;85.20;;;;;;4900878;29;20043;-80
2021/07/18 04:52:52;;;;;;;1.35;0.90;;;17.60;85.20;;;;;;4917863;29;20098;-79
2021/07/18 04:55:19;;;;;;;1.00;0.82;;;17.60;85.80;;;;;;4900981;29;20040;-80
2021/07/18 04:57:47;;;;;;;1.35;0.75;;;17.50;85.10;;;;;;4917071;29;20040;-79
2021/07/18 05:00:17;;;;;;;0.85;0.70;;;17.70;85.20;;;;;;4901090;29;20078;-80
2021/07/18 05:02:44;;;;;;;0.50;0.50;;;17.50;84.90;;;;;;4884336;29;20055;-80
2021/07/18 05:05:12;;;;;;;1.40;0.90;;;17.80;85.00;;;;;;4897792;29;20084;-80
2021/07/18 05:07:52;;;;;;;1.00;0.80;;;17.80;85.00;;;;;;4917975;29;20460;-80
2021/07/18 05:10:21;;;;;;;0.50;0.50;;;17.80;85.10;;;;;;4898189;29;20075;-79
2021/07/18 05:12:49;;;;;;;1.13;0.85;;;17.70;85.00;;;;;;4915181;29;20084;-79
2021/07/18 05:15:16;;;;;;;0.88;0.70;;;17.70;85.10;;;;;;4916930;29;20056;-79
2021/07/18 05:17:42;;;;;;;0.77;0.60;;;17.70;85.10;;;;;;4883816;29;20096;-79
2021/07/18 05:20:11;;;;;;;0.82;0.65;;;17.80;85.10;;;;;;4900930;29;20041;-79
2021/07/18 05:22:38;;;;;;;1.20;0.80;;;17.80;85.00;;;;;;4900354;29;20480;-79
2021/07/18 05:25:05;;;;;;;0.50;0.50;;;17.90;84.90;;;;;;4900320;29;20049;-78
2021/07/18 05:27:34;;;;;;;0.65;0.65;;;18.00;84.80;;;;;;4918221;29;20046;-79
2021/07/18 05:30:01;;;;;;;0.65;0.60;;;18.10;84.70;;;;;;4916086;29;20478;-79
2021/07/18 05:32:28;;;;;;;0.63;0.60;;;18.10;85.00;;;;;;4915128;29;20033;-79
2021/07/18 05:34:53;;;;;;;1.10;0.77;;;18.20;84.30;;;;;;4900229;29;20080;-79
2021/07/18 05:37:19;;;;;;;0.70;0.60;;;18.20;84.20;;;;;;4913966;29;20036;-79
2021/07/18 05:39:45;;;;;;;0.40;0.40;;;18.30;84.20;;;;;;4916203;29;20039;-79
2021/07/18 05:42:12;;;;;;;0.80;0.80;;;18.30;84.20;;;;;;4899888;29;20036;-79
2021/07/18 05:44:39;;;;;;;0.88;0.70;;;18.40;84.30;;;;;;4916619;29;20048;-79
2021/07/18 05:47:06;;;;;;;1.15;0.60;;;18.30;84.10;;;;;;4902675;29;20032;-79
2021/07/18 05:49:33;;;;;;;0.68;0.65;;;18.40;84.10;;;;;;4902232;29;20140;-79
2021/07/18 05:51:59;;;;;;;0.90;0.60;;;18.50;84.00;;;;;;4911058;29;20099;-79
2021/07/18 05:54:25;;;;;;;0.52;0.50;;;18.50;84.10;;;;;;4911394;29;20052;-79
2021/07/18 05:56:52;;;;;;;0.57;0.57;;;18.50;84.10;;;;;;4896562;29;20071;-79
2021/07/18 05:59:18;;;;;;;0.45;0.40;;;18.50;84.00;;;;;;4921201;29;20040;-79
2021/07/18 06:01:44;;;;;;;1.30;0.75;;;18.60;84.00;;;;;;4903392;29;20047;-80
2021/07/18 06:04:10;;;;;;;1.38;0.80;;;18.60;83.90;;;;;;4902660;29;20056;-80
2021/07/18 06:06:36;;;;;;;0.68;0.68;;;18.60;83.80;;;;;;4919101;29;20092;-79
2021/07/18 06:09:03;;;;;;;0.63;0.63;;;18.70;83.80;;;;;;4916677;29;20040;-79
2021/07/18 06:11:29;;;;;;;0.93;0.65;;;18.70;83.70;;;;;;4918433;29;20033;-80
2021/07/18 06:13:55;;;;;;;1.00;0.60;;;18.70;83.50;;;;;;4900897;29;20391;-78
2021/07/18 06:16:21;;;;;;;0.50;0.50;;;18.70;83.70;;;;;;4917462;29;20128;-79
2021/07/18 06:18:47;;;;;;;0.50;0.50;;;18.70;83.70;;;;;;4918150;29;20438;-80
2021/07/18 06:21:12;;;;;;;1.00;0.70;;;18.80;83.60;;;;;;4901303;29;20044;-80
2021/07/18 06:23:42;;;;;;;0.63;0.60;;;18.90;83.50;;;;;;4917022;29;20119;-80
2021/07/18 06:26:09;;;;;;;0.85;0.60;;;18.90;83.40;;;;;;4901005;29;20554;-79
2021/07/18 06:28:36;;;;;;;0.88;0.70;;;19.00;83.40;;;;;;4916447;29;20511;-76
2021/07/18 06:31:02;;;;;;;0.65;0.65;;;19.00;83.30;;;;;;4902145;29;20033;-76
2021/07/18 06:33:27;;;;;;;0.55;0.55;;;19.10;83.20;;;;;;4925759;29;20048;-76
2021/07/18 06:35:54;;;;;;;0.57;0.57;;;19.10;83.10;;;;;;4926412;29;20041;-75
2021/07/18 06:38:19;;;;;;;0.52;0.52;;;19.20;82.90;;;;;;4922365;29;20036;-76
2021/07/18 06:40:45;;;;;;;0.40;0.40;;;19.30;82.90;;;;;;4920812;29;20455;-76
2021/07/18 06:43:11;;;;;;;0.50;0.50;;;19.40;82.70;;;;;;4922119;29;20076;-76
2021/07/18 06:45:38;;;;;;;0.43;0.40;;;19.50;82.40;;;;;;4921519;29;20075;-76
2021/07/18 06:48:04;;;;;;;0.40;0.40;;;19.60;82.20;;;;;;4921142;29;20032;-76
2021/07/18 06:50:31;;;;;;;0.50;0.50;;;19.70;82.00;;;;;;4905428;29;20387;-77
2021/07/18 06:52:58;;;;;;;0.38;0.38;;;19.80;81.80;;;;;;4921568;29;20040;-76
2021/07/18 06:55:24;;;;;;;0.32;0.32;;;19.90;81.60;;;;;;4880489;29;20045;-76
2021/07/18 06:57:52;;;;;;;0.47;0.40;;;20.10;81.50;;;;;;4879676;29;20050;-76
2021/07/18 07:00:20;;;;;;;0.40;0.40;;;20.20;81.20;;;;;;4864853;29;20136;-77
2021/07/18 07:02:47;;;;;;;0.50;0.50;;;20.30;81.00;;;;;;4866010;29;20082;-76
2021/07/18 07:05:14;;;;;;;0.75;0.52;;;20.50;80.80;;;;;;4880162;29;20045;-76
2021/07/18 07:07:46;;;;;;;0.45;0.45;;;20.60;80.60;;;;;;4882162;29;20061;-76
2021/07/18 07:10:15;;;;;;;0.52;0.40;;;20.80;80.70;;;;;;4866736;29;20033;-77
2021/07/18 07:12:43;;;;;;;0.50;0.50;;;20.90;80.20;;;;;;4867934;29;20052;-77
2021/07/18 07:15:09;;;;;;;0.40;0.40;;;21.10;80.30;;;;;;4867149;29;20097;-78
2021/07/18 07:17:36;;;;;;;0.40;0.40;;;21.30;79.90;;;;;;4881062;29;20132;-77
2021/07/18 07:20:04;;;;;;;0.40;0.40;;;21.40;79.70;;;;;;4866354;29;20057;-77
2021/07/18 07:22:30;;;;;;;0.63;0.40;;;21.50;79.40;;;;;;4851248;29;20136;-77
2021/07/18 07:24:56;;;;;;;0.55;0.50;;;21.70;79.40;;;;;;4865097;29;20168;-77
2021/07/18 07:27:22;;;;;;;0.52;0.50;;;21.80;79.30;;;;;;4886508;29;20045;-78
2021/07/18 07:29:49;;;;;;;0.40;0.40;;;22.00;79.00;;;;;;4920314;29;20491;-76
2021/07/18 07:32:16;;;;;;;0.50;0.50;;;22.20;78.80;;;;;;4901923;29;20048;-78
2021/07/18 07:34:42;;;;;;;0.40;0.40;;;22.40;78.50;;;;;;4918307;29;20127;-76
2021/07/18 07:37:09;;;;;;;0.40;0.40;;;22.50;78.30;;;;;;4917289;29;20036;-76
2021/07/18 07:39:35;;;;;;;0.38;0.35;;;22.70;78.20;;;;;;4899393;29;20044;-76
2021/07/18 07:42:01;;;;;;;0.50;0.50;;;22.80;78.00;;;;;;4917562;29;20504;-77
2021/07/18 07:44:28;;;;;;;0.63;0.60;;;22.90;77.90;;;;;;4915912;29;20055;-76
2021/07/18 07:46:55;;;;;;;0.50;0.50;;;23.00;77.70;;;;;;4916813;29;20092;-76
2021/07/18 07:49:21;;;;;;;0.32;0.32;;;23.20;77.60;;;;;;4899665;29;20041;-77
2021/07/18 07:51:48;;;;;;;0.70;0.50;;;23.40;77.50;;;;;;4915209;29;20047;-77
2021/07/18 07:54:14;;;;;;;0.45;0.40;;;23.60;77.20;;;;;;4917350;29;20104;-78
2021/07/18 07:56:42;;;;;;;0.43;0.43;;;23.70;76.90;;;;;;4918405;29;20040;-79
2021/07/18 07:59:08;;;;;;;0.40;0.40;;;23.70;77.00;;;;;;4912011;29;20044;-81
2021/07/18 08:01:34;;;;;;;0.80;0.60;;;23.80;77.00;;;;;;4886503;29;20040;-81
2021/07/18 08:04:02;;;;;;;0.95;0.50;;;23.80;76.90;;;;;;4899030;29;20062;-83
2021/07/18 08:06:28;;;;;;;0.95;0.50;;;23.80;76.90;;;;;;4882671;29;20499;-80
2021/07/18 08:08:55;;;;;;;0.60;0.60;;;23.90;76.50;;;;;;4897004;29;20087;-81
2021/07/18 08:11:21;;;;;;;1.02;0.70;;;24.10;76.30;;;;;;4914893;29;20024;-82
2021/07/18 08:13:46;;;;;;;0.47;0.47;;;24.30;76.20;;;;;;4883390;29;20046;-81
2021/07/18 08:16:13;;;;;;;0.50;0.50;;;24.30;76.10;;;;;;4916798;29;20044;-81
2021/07/18 08:18:40;;;;;;;0.60;0.60;;;24.40;76.10;;;;;;4907368;29;20032;-81
2021/07/18 08:21:07;;;;;;;0.73;0.73;;;24.70;76.00;;;;;;4936302;29;20015;-81
2021/07/18 08:23:33;;;;;;;0.43;0.43;;;24.70;75.80;;;;;;4913619;29;20036;-81
2021/07/18 08:25:59;;;;;;;0.60;0.60;;;24.70;75.60;;;;;;4899011;29;20543;-82
2021/07/18 08:28:26;;;;;;;1.30;0.70;;;24.90;75.60;;;;;;4916761;29;20117;-81
2021/07/18 08:30:53;;;;;;;0.95;0.70;;;24.80;75.30;;;;;;4915872;29;20032;-82
2021/07/18 08:33:31;;;;;;;0.50;0.50;;;25.20;75.10;;;;;;4876505;29;20048;-79
2021/07/18 08:36:08;;;;;;;0.50;0.50;;;25.30;75.00;;;;;;4836080;29;20073;-80
2021/07/18 08:38:34;;;;;;;0.80;0.73;;;25.10;74.90;;;;;;4837395;29;20080;-80
2021/07/18 08:41:01;;;;;;;1.98;0.77;;;25.10;75.10;;;;;;4839116;29;20085;-77
2021/07/18 08:43:27;;;;;;;0.93;0.75;;;25.20;75.00;;;;;;4826055;29;20085;-77
2021/07/18 08:45:54;;;;;;;0.60;0.60;;;25.10;74.80;;;;;;4843177;29;20136;-78
2021/07/18 08:48:21;;;;;;;1.00;0.90;;;25.30;74.70;;;;;;4829257;29;20116;-77
2021/07/18 08:50:48;;;;;;;0.80;0.70;;;25.30;74.60;;;;;;4857858;29;20046;-78
2021/07/18 08:53:15;;;;;;;0.60;0.60;;;25.40;74.30;;;;;;4826896;29;20105;-78
2021/07/18 08:55:43;;;;;;;2.38;1.00;;;25.50;74.10;;;;;;4857926;29;20480;-80
2021/07/18 08:58:09;;;;;;;1.25;0.75;;;25.60;73.80;;;;;;4842851;29;20053;-78
2021/07/18 09:00:37;;;;;;;0.75;0.68;;;25.70;73.70;;;;;;4826717;29;20596;-78
2021/07/18 09:03:04;;;;;;;0.73;0.70;;;25.50;73.40;;;;;;4841693;29;20046;-80
2021/07/18 09:05:31;;;;;;;0.68;0.68;;;25.80;73.40;;;;;;4827830;29;20097;-76
2021/07/18 09:07:57;;;;;;;0.82;0.60;;;25.90;73.20;;;;;;4912351;29;20044;-76
2021/07/18 09:10:31;;;;;;;0.77;0.70;;;26.00;73.20;;;;;;4898247;29;20114;-76
2021/07/18 09:13:07;;;;;;;1.15;0.80;;;26.20;73.00;;;;;;4897074;29;20491;-76
2021/07/18 09:15:44;;;;;;;0.80;0.80;;;26.30;72.70;;;;;;4915206;29;20138;-77
2021/07/18 09:18:13;;;;;;;0.70;0.68;;;26.40;72.30;;;;;;4894380;29;20044;-78
2021/07/18 09:20:42;;;;;;;1.08;0.70;;;26.40;72.10;;;;;;4917468;29;20510;-77
2021/07/18 09:23:11;;;;;;;1.48;0.70;;;26.40;72.20;;;;;;4915583;29;20047;-78
2021/07/18 09:25:37;;;;;;;0.95;0.70;;;26.50;72.10;;;;;;4899382;29;20076;-78
2021/07/18 09:28:12;;;;;;;1.55;0.63;;;26.50;72.10;;;;;;4918218;29;21022;-78
2021/07/18 09:30:39;;;;;;;1.10;0.90;;;26.50;72.00;;;;;;4915806;29;20048;-78
2021/07/18 09:33:06;;;;;;;9.80;2.05;;;26.50;71.80;;;;;;4901641;29;20040;-79
2021/07/18 09:35:32;;;;;;;2.75;1.25;;;26.50;71.70;;;;;;4918704;29;20052;-78
2021/07/18 09:37:59;;;;;;;1.63;1.10;;;26.60;71.50;;;;;;4918929;29;20132;-78
2021/07/18 09:40:25;;;;;;;1.35;1.00;;;26.60;71.40;;;;;;4916679;29;20040;-78
2021/07/18 09:42:56;;;;;;;0.70;0.70;;;26.70;71.10;;;;;;4916569;29;20036;-78
2021/07/18 09:45:22;;;;;;;;;;;26.70;71.00;;;;;;4917419;29;20068;-78
2021/07/18 09:47:56;;;;;;;1.83;1.05;;;26.80;71.10;;;;;;4900629;29;19919;-78
2021/07/18 09:50:30;;;;;;;1.23;0.90;;;26.80;70.50;;;;;;4917114;29;20402;-78
2021/07/18 09:53:16;;;;;;;1.30;0.88;;;26.80;70.30;;;;;;4916263;29;20117;-77
2021/07/18 09:56:06;;;;;;;0.73;0.70;;;26.80;70.30;;;;;;4913370;29;20044;-78
2021/07/18 09:58:34;;;;;;;0.98;0.52;;;26.90;70.20;;;;;;4898637;29;20401;-77
2021/07/18 10:01:02;;;;;;;0.70;0.57;;;27.00;70.40;;;;;;4917877;29;20461;-77
2021/07/18 10:03:29;;;;;;;0.60;0.60;;;27.10;70.30;;;;;;4901037;29;20068;-77
2021/07/18 10:06:14;;;;;;;1.35;0.95;;;27.20;70.10;;;;;;4917722;29;20075;-78
2021/07/18 10:08:45;;;;;;;1.60;0.80;;;27.20;69.70;;;;;;4900727;29;20098;-78
2021/07/18 10:11:14;;;;;;;0.73;0.70;;;27.30;69.70;;;;;;4884965;29;20398;-76
2021/07/18 10:13:42;;;;;;;1.25;0.80;;;27.30;69.70;;;;;;4916228;29;20044;-76
2021/07/18 10:16:11;;;;;;;0.60;0.60;;;27.40;69.10;;;;;;4917687;29;20394;-77
2021/07/18 10:18:39;;;;;;;0.73;0.70;;;27.40;69.30;;;;;;4900481;29;20044;-76
2021/07/18 10:21:08;;;;;;;1.63;1.00;;;27.40;68.90;;;;;;4917813;29;20040;-77
2021/07/18 10:23:36;;;;;;;0.65;0.65;;;27.40;68.60;;;;;;4915251;29;20036;-76
2021/07/18 10:26:02;;;;;;;1.17;0.90;;;27.30;68.40;;;;;;4916362;29;20044;-76
2021/07/18 10:28:28;;;;;;;1.58;1.00;;;27.20;68.40;;;;;;4917713;29;20048;-76
2021/07/18 10:31:03;;;;;;;0.95;0.80;;;27.20;68.20;;;;;;4915379;29;20032;-76
2021/07/18 10:33:31;;;;;;;0.60;0.60;;;27.20;68.30;;;;;;4900498;29;20065;-78
2021/07/18 10:35:58;;;;;;;1.13;0.90;;;27.20;67.90;;;;;;4900024;29;20120;-77
2021/07/18 10:38:26;;;;;;;1.20;1.10;;;27.20;67.60;;;;;;4917824;29;20052;-76
2021/07/18 10:40:54;;;;;;;1.00;0.90;;;27.20;67.50;;;;;;4917158;29;20048;-76
2021/07/18 10:43:40;;;;;;;0.70;0.70;;;27.20;67.40;;;;;;4916105;29;20087;-76
2021/07/18 10:46:11;;;;;;;0.77;0.68;;;27.30;67.10;;;;;;4917396;29;20127;-76
2021/07/18 10:48:50;;;;;;;0.80;0.80;;;27.30;66.90;;;;;;4915400;29;20040;-76
2021/07/18 10:51:20;;;;;;;1.48;1.00;;;27.40;66.80;;;;;;4917032;29;20178;-77
2021/07/18 10:53:48;;;;;;;;;;;27.40;66.60;;;;;;4917706;29;20048;-77
2021/07/18 10:56:39;;;;;;;0.70;0.70;;;27.50;66.90;;;;;;4916840;29;19915;-75
2021/07/18 10:59:05;;;;;;;0.98;0.70;;;27.60;66.70;;;;;;4915402;29;20122;-76
2021/07/18 11:01:35;;;;;;;0.88;0.88;;;27.50;66.50;;;;;;4916997;29;20036;-77
2021/07/18 11:04:01;;;;;;;1.67;0.90;;;27.50;66.10;;;;;;4917159;29;20072;-76
2021/07/18 11:06:30;;;;;;;2.15;0.80;;;27.50;66.30;;;;;;4916989;29;20052;-76
2021/07/18 11:09:16;;;;;;;0.80;0.80;;;27.60;66.20;;;;;;4917326;29;20527;-75
2021/07/18 11:11:51;;;;;;;0.90;0.90;;;27.70;65.90;;;;;;4916453;29;20375;-76
2021/07/18 11:14:35;;;;;;;1.00;0.90;;;27.70;65.50;;;;;;4914854;29;20047;-76
2021/07/18 11:17:24;;;;;;;0.80;0.80;;;27.70;65.30;;;;;;4916354;29;20043;-76
2021/07/18 11:20:00;;;;;;;0.73;0.73;;;27.70;65.40;;;;;;4915032;29;20040;-76
2021/07/18 11:22:58;;;;;;;0.88;0.88;;;27.70;65.30;;;;;;4915604;29;20047;-76
2021/07/18 11:25:44;;;;;;;1.10;1.00;;;27.80;65.30;;;;;;4915572;29;20055;-76
2021/07/18 11:28:39;;;;;;;0.93;0.85;;;27.90;65.30;;;;;;4914492;29;20044;-76
2021/07/18 11:31:23;;;;;;;1.52;0.95;;;28.00;65.20;;;;;;4915137;29;20040;-76
2021/07/18 11:33:55;;;;;;;0.60;0.60;;;28.10;65.10;;;;;;4899624;29;20063;-77
2021/07/18 11:36:42;;;;;;;1.00;0.90;;;28.10;64.90;;;;;;4913367;29;20051;-76
2021/07/18 11:39:13;;;;;;;0.80;0.80;;;28.10;65.10;;;;;;4897827;29;20067;-76
2021/07/18 11:41:40;;;;;;;0.80;0.73;;;28.10;65.10;;;;;;4896569;29;20423;-77
2021/07/18 11:44:07;;;;;;;0.95;0.90;;;28.10;65.20;;;;;;4914854;29;20490;-76
2021/07/18 11:46:37;;;;;;;1.42;0.95;;;28.10;65.20;;;;;;4916421;29;20510;-76
2021/07/18 11:49:05;;;;;;;1.10;1.08;;;28.00;65.00;;;;;;4916119;29;20060;-76
2021/07/18 11:51:35;;;;;;;0.95;0.90;;;28.00;65.10;;;;;;4916410;29;20106;-76
2021/07/18 11:54:01;;;;;;;0.80;0.80;;;28.10;65.20;;;;;;4916385;29;20082;-77
2021/07/18 11:56:33;;;;;;;1.20;1.10;;;28.10;65.30;;;;;;4917773;29;20051;-77
2021/07/18 11:59:05;;;;;;;0.82;0.80;;;28.00;65.10;;;;;;4897924;29;20449;-76
2021/07/18 12:01:33;;;;;;;1.55;1.10;;;27.90;65.00;;;;;;4915001;29;20108;-76
2021/07/18 12:04:00;;;;;;;1.42;1.00;;;27.90;64.80;;;;;;4916251;29;20051;-79
2021/07/18 12:06:28;;;;;;;1.13;1.02;;;27.90;64.90;;;;;;4917751;29;20025;-76
2021/07/18 12:08:58;;;;;;;0.73;0.73;;;27.80;65.00;;;;;;4916289;29;20115;-76
2021/07/18 12:11:27;;;;;;;1.00;0.90;;;27.80;65.00;;;;;;4916263;29;20038;-76
2021/07/18 12:13:53;;;;;;;0.80;0.80;;;27.80;65.00;;;;;;4915787;29;20033;-76
2021/07/18 12:16:23;;;;;;;1.10;1.00;;;27.90;65.00;;;;;;4914932;29;20126;-77
2021/07/18 12:18:52;;;;;;;0.85;0.85;;;27.80;64.70;;;;;;4898566;29;20476;-76
2021/07/18 12:21:20;;;;;;;0.70;0.70;;;27.80;64.70;;;;;;4914784;29;20051;-77
2021/07/18 12:24:17;;;;;;;7.82;1.60;;;27.80;64.80;;;;;;4915542;29;20040;-76
2021/07/18 12:26:47;;;;;;;1.70;1.00;;;27.90;64.70;;;;;;4913945;29;20123;-76
2021/07/18 12:29:14;;;;;;;0.93;0.90;;;27.90;64.60;;;;;;4914408;29;20051;-76
2021/07/18 12:31:44;;;;;;;1.00;0.90;;;27.80;64.60;;;;;;4914378;29;20044;-77
2021/07/18 12:34:12;;;;;;;0.80;0.65;;;27.80;64.80;;;;;;4914190;29;20387;-76
2021/07/18 12:36:52;;;;;;;1.00;0.90;;;27.80;64.70;;;;;;4916009;29;20056;-76
2021/07/18 12:39:20;;;;;;;1.00;0.90;;;27.80;64.70;;;;;;4897442;29;20036;-75
2021/07/18 12:41:46;;;;;;;0.80;0.80;;;27.70;64.80;;;;;;4915545;29;20068;-76
2021/07/18 12:44:13;;;;;;;1.00;0.90;;;27.60;64.60;;;;;;4915903;29;20040;-76
2021/07/18 12:46:39;;;;;;;0.82;0.82;;;27.60;64.70;;;;;;4914498;29;20127;-76
2021/07/18 12:49:08;;;;;;;1.27;1.17;;;27.60;64.70;;;;;;4898334;29;20187;-77
2021/07/18 12:51:34;;;;;;;1.75;1.10;;;27.70;64.30;;;;;;4915485;29;20059;-75
2021/07/18 12:54:01;;;;;;;0.90;0.90;;;27.70;64.40;;;;;;4910083;29;20044;-75